createdAt,value
2022-09-14T05:21:32.084Z,23.30
2022-09-14T05:24:03.276Z,23.10
2022-09-14T05:26:32.787Z,23.20
2022-09-14T05:29:02.816Z,23.50
2022-09-14T05:31:32.488Z,23.60
2022-09-14T05:34:01.139Z,23.30
2022-09-14T05:36:29.548Z,23.10
2022-09-14T05:38:57.592Z,22.90
2022-09-14T05:41:26.021Z,22.90
2022-09-14T05:43:54.104Z,23.10
2022-09-14T05:46:22.557Z,23.30
2022-09-14T05:48:50.868Z,23.60
2022-09-14T05:51:22.473Z,23.30
2022-09-14T05:53:55.903Z,23.00
2022-09-14T05:56:26.541Z,23.00
2022-09-14T05:58:54.853Z,23.30
2022-09-14T06:01:29.233Z,23.50
2022-09-14T06:03:59.656Z,23.70
2022-09-14T06:06:28.128Z,23.50
2022-09-14T06:08:56.783Z,23.20
2022-09-14T06:11:30.738Z,23.00
2022-09-14T06:13:59.381Z,22.80
2022-09-14T06:16:28.757Z,22.80
2022-09-14T06:18:59.161Z,23.10
2022-09-14T06:21:33.314Z,23.30
2022-09-14T06:24:01.712Z,23.50
2022-09-14T06:26:29.953Z,23.70
2022-09-14T06:28:58.668Z,23.50
2022-09-14T06:31:26.923Z,23.10
2022-09-14T06:33:55.048Z,23.00
2022-09-14T06:36:26.248Z,23.20
2022-09-14T06:38:55.430Z,23.40
2022-09-14T06:41:26.519Z,23.60
2022-09-14T06:43:57.462Z,23.80
2022-09-14T06:46:28.554Z,23.60
2022-09-14T06:49:06.013Z,23.10
2022-09-14T06:51:45.417Z,23.00
2022-09-14T06:54:14.800Z,22.80
2022-09-14T06:56:44.668Z,22.70
2022-09-14T06:59:15.848Z,22.90
2022-09-14T07:01:44.960Z,23.10
2022-09-14T07:04:13.544Z,23.30
2022-09-14T07:06:46.168Z,23.60
2022-09-14T07:09:16.156Z,23.70
2022-09-14T07:11:44.387Z,23.80
2022-09-14T07:14:13.255Z,23.50
2022-09-14T07:16:41.858Z,23.10
2022-09-14T07:19:15.550Z,23.00
2022-09-14T07:21:44.121Z,23.30
2022-09-14T07:24:13.553Z,23.50
2022-09-14T07:26:42.896Z,23.60
2022-09-14T07:29:13.948Z,23.80
2022-09-14T07:31:53.558Z,23.90
2022-09-14T07:34:21.945Z,23.60
2022-09-14T07:36:50.215Z,23.20
2022-09-14T07:39:18.760Z,23.00
2022-09-14T07:41:47.056Z,22.80
2022-09-14T07:44:17.268Z,22.70
2022-09-14T07:46:46.852Z,22.70
2022-09-14T07:49:15.829Z,22.90
2022-09-14T07:51:44.622Z,23.10
2022-09-14T07:54:15.360Z,23.30
2022-09-14T07:56:44.120Z,23.50
2022-09-14T08:02:03.054Z,23.80
2022-09-14T08:04:30.928Z,23.30
2022-09-14T08:06:58.870Z,23.00
2022-09-14T08:09:27.002Z,23.10
2022-09-14T08:11:55.160Z,23.30
2022-09-14T08:14:23.292Z,23.50
2022-09-14T08:16:51.485Z,23.60
2022-09-14T08:19:19.814Z,23.80
2022-09-14T08:21:48.297Z,23.50
2022-09-14T08:24:20.462Z,23.20
2022-09-14T08:26:49.372Z,23.00
2022-09-14T08:29:18.797Z,22.80
2022-09-14T08:31:47.031Z,22.80
2022-09-14T08:34:16.850Z,22.80
2022-09-14T08:36:46.861Z,23.10
2022-09-14T08:39:16.601Z,23.30
2022-09-14T08:41:44.760Z,23.50
2022-09-14T08:44:18.743Z,23.60
2022-09-14T08:46:59.820Z,23.70
2022-09-14T08:49:49.629Z,23.20
2022-09-14T08:52:32.192Z,22.90
2022-09-14T08:55:20.439Z,23.10
2022-09-14T08:58:18.085Z,23.30
2022-09-14T09:00:50.921Z,23.50
2022-09-14T09:03:32.014Z,23.70
2022-09-14T09:06:34.832Z,23.60
2022-09-14T09:09:25.607Z,23.10
2022-09-14T09:11:55.854Z,22.90
2022-09-14T09:14:24.935Z,22.70
2022-09-14T09:16:57.416Z,22.70
2022-09-14T09:19:43.387Z,22.90
2022-09-14T09:22:16.644Z,23.20
2022-09-14T09:24:49.637Z,23.40
2022-09-14T09:27:18.130Z,23.60
2022-09-14T09:29:54.209Z,23.70
2022-09-14T09:32:26.235Z,23.60
2022-09-14T09:35:24.072Z,23.20
2022-09-14T09:37:59.975Z,22.90
2022-09-14T09:40:42.089Z,23.10
2022-09-14T09:43:38.479Z,23.30
2022-09-14T09:46:12.010Z,23.50
2022-09-14T09:48:43.898Z,23.70
2022-09-14T09:51:31.203Z,23.60
2022-09-14T09:54:09.243Z,23.20
2022-09-14T09:56:48.678Z,22.90
2022-09-14T09:59:43.445Z,22.70
2022-09-14T10:02:30.797Z,22.60
2022-09-14T10:05:11.504Z,22.70
2022-09-14T10:07:59.528Z,23.00
2022-09-14T10:10:48.127Z,23.20
2022-09-14T10:13:38.848Z,23.40
2022-09-14T10:16:26.998Z,23.60
2022-09-14T10:18:55.671Z,23.70
2022-09-14T10:21:25.557Z,23.40
2022-09-14T10:24:15.838Z,23.10
2022-09-14T10:26:44.285Z,23.20
2022-09-14T10:29:36.190Z,23.40
2022-09-14T10:32:18.605Z,23.60
2022-09-14T10:34:47.336Z,23.80
2022-09-14T10:37:18.141Z,24.00
2022-09-14T10:40:08.312Z,23.60
2022-09-14T10:43:16.953Z,23.10
2022-09-14T10:45:50.097Z,22.50
2022-09-14T10:48:23.423Z,22.30
2022-09-14T10:50:54.807Z,22.30
2022-09-14T10:53:41.434Z,22.40
2022-09-14T10:56:54.376Z,22.70
2022-09-14T10:59:48.399Z,23.00
2022-09-14T11:02:56.149Z,23.20
2022-09-14T11:05:38.644Z,23.30
2022-09-14T11:08:12.490Z,23.50
2022-09-14T11:11:08.091Z,23.00
2022-09-14T11:13:57.433Z,22.50
2022-09-14T11:16:59.565Z,22.50
2022-09-14T11:19:38.452Z,22.90
2022-09-14T11:22:21.622Z,23.10
2022-09-14T11:25:05.502Z,23.30
2022-09-14T11:27:58.168Z,23.40
2022-09-14T11:30:40.601Z,23.50
2022-09-14T11:33:27.915Z,22.80
2022-09-14T11:36:18.992Z,22.50
2022-09-14T11:38:55.556Z,22.30
2022-09-14T11:41:51.228Z,22.20
2022-09-14T11:44:40.109Z,22.30
2022-09-14T11:47:18.668Z,22.60
2022-09-14T11:49:52.727Z,22.80
2022-09-14T11:52:23.360Z,23.00
2022-09-14T11:54:52.636Z,23.20
2022-09-14T11:57:34.597Z,23.30
2022-09-14T12:00:30.081Z,23.40
2022-09-14T12:03:20.765Z,23.00
2022-09-14T12:05:50.739Z,22.60
2022-09-14T12:08:24.795Z,22.60
2022-09-14T12:11:11.608Z,22.80
2022-09-14T12:13:40.368Z,23.00
2022-09-14T12:16:10.260Z,23.20
2022-09-14T12:18:40.302Z,23.30
2022-09-14T12:21:25.695Z,23.40
2022-09-14T12:23:55.685Z,23.00
2022-09-14T12:26:33.276Z,22.50
2022-09-14T12:29:20.724Z,22.20
2022-09-14T12:31:52.240Z,22.10
2022-09-14T12:34:28.385Z,22.20
2022-09-14T12:37:00.281Z,22.40
2022-09-14T12:39:36.427Z,22.60
2022-09-14T12:42:27.190Z,22.80
2022-09-14T12:44:55.595Z,23.00
2022-09-14T12:47:26.786Z,23.10
2022-09-14T12:50:04.757Z,23.30
2022-09-14T12:52:40.570Z,23.40
2022-09-14T12:55:27.581Z,22.70
2022-09-14T12:58:21.716Z,22.30
2022-09-14T13:01:18.900Z,22.50
2022-09-14T13:03:55.901Z,22.80
2022-09-14T13:06:27.409Z,23.00
2022-09-14T13:08:58.948Z,23.20
2022-09-14T13:11:37.458Z,23.30
2022-09-14T13:14:06.239Z,23.40
2022-09-14T13:16:48.167Z,22.80
2022-09-14T13:19:27.117Z,22.30
2022-09-14T13:21:58.564Z,22.20
2022-09-14T13:24:30.840Z,22.10
2022-09-14T13:27:01.951Z,22.20
2022-09-14T13:29:30.939Z,22.50
2022-09-14T13:32:03.588Z,22.80
2022-09-14T13:34:37.925Z,23.00
2022-09-14T13:37:06.653Z,23.20
2022-09-14T13:39:38.690Z,23.40
2022-09-14T13:42:08.268Z,23.60
2022-09-14T13:44:42.045Z,23.70
2022-09-14T13:47:17.214Z,23.80
2022-09-14T13:49:47.639Z,23.90
2022-09-14T13:52:50.225Z,24.00
2022-09-14T13:55:43.539Z,24.00
2022-09-14T13:58:21.048Z,24.10
2022-09-14T14:00:56.903Z,24.10
2022-09-14T14:03:38.798Z,24.10
2022-09-14T14:06:30.645Z,24.10
2022-09-14T14:09:01.490Z,24.20
2022-09-14T14:11:38.987Z,24.20
2022-09-14T14:14:31.138Z,24.20
2022-09-14T14:17:23.341Z,24.30
2022-09-14T14:19:54.329Z,24.30
2022-09-14T14:22:25.629Z,24.30
2022-09-14T14:27:46.774Z,24.30
2022-09-14T14:30:20.871Z,24.40
2022-09-14T14:32:53.285Z,24.40
2022-09-14T14:35:28.719Z,24.40
2022-09-14T14:37:57.754Z,24.40
2022-09-14T14:40:27.730Z,24.30
2022-09-14T14:42:59.084Z,23.60
2022-09-14T14:45:28.120Z,22.70
2022-09-14T14:47:56.817Z,22.50
2022-09-14T14:50:28.179Z,22.40
2022-09-14T14:52:56.555Z,22.40
2022-09-14T14:55:25.899Z,22.40
2022-09-14T14:57:54.495Z,22.40
2022-09-14T15:00:25.003Z,22.70
2022-09-14T15:02:53.406Z,22.90
2022-09-14T15:05:21.874Z,23.10
2022-09-14T15:07:50.418Z,23.20
2022-09-14T15:10:20.010Z,23.40
2022-09-14T15:12:48.448Z,23.50
2022-09-14T15:15:20.682Z,23.60
2022-09-14T15:17:48.939Z,22.80
2022-09-14T15:20:17.592Z,22.50
2022-09-14T15:22:46.362Z,22.50
2022-09-14T15:25:15.556Z,22.90
2022-09-14T15:27:44.038Z,23.10
2022-09-14T15:30:13.414Z,23.20
2022-09-14T15:32:44.466Z,23.30
2022-09-14T15:35:15.377Z,23.40
2022-09-14T15:37:44.033Z,23.30
2022-09-14T15:40:12.997Z,22.70
2022-09-14T15:42:41.409Z,22.30
2022-09-14T15:45:10.260Z,22.20
2022-09-14T15:47:38.169Z,22.20
2022-09-14T15:50:07.296Z,22.20
2022-09-14T15:52:37.362Z,22.40
2022-09-14T15:55:08.036Z,22.60
2022-09-14T15:57:37.379Z,22.80
2022-09-14T16:00:08.895Z,23.00
2022-09-14T16:02:44.148Z,23.10
2022-09-14T16:05:12.561Z,23.30
2022-09-14T16:07:40.761Z,23.40
2022-09-14T16:10:09.495Z,22.90
2022-09-14T16:12:37.995Z,22.40
2022-09-14T16:15:06.534Z,22.20
2022-09-14T16:17:35.028Z,22.60
2022-09-14T16:20:04.996Z,22.90
2022-09-14T16:22:33.399Z,23.00
2022-09-14T16:25:01.850Z,23.20
2022-09-14T16:27:30.404Z,23.30
2022-09-14T16:29:58.546Z,23.50
2022-09-14T16:32:26.735Z,22.90
2022-09-14T16:34:55.122Z,22.50
2022-09-14T16:37:23.411Z,22.30
2022-09-14T16:39:51.956Z,22.20
2022-09-14T16:42:20.223Z,22.20
2022-09-14T16:44:48.473Z,22.30
2022-09-14T16:47:16.748Z,22.40
2022-09-14T16:49:45.061Z,22.70
2022-09-14T16:52:13.250Z,22.90
2022-09-14T16:54:41.452Z,23.00
2022-09-14T16:57:09.857Z,23.20
2022-09-14T16:59:37.988Z,23.30
2022-09-14T17:02:06.607Z,23.40
2022-09-14T17:04:35.087Z,22.80
2022-09-14T17:07:03.365Z,22.50
2022-09-14T17:09:32.377Z,22.50
2022-09-14T17:12:00.611Z,22.80
2022-09-14T17:14:31.920Z,23.00
2022-09-14T17:17:00.922Z,23.20
2022-09-14T17:19:29.269Z,23.30
2022-09-14T17:21:57.620Z,23.40
2022-09-14T17:24:25.715Z,23.30
2022-09-14T17:26:54.173Z,22.80
2022-09-14T17:29:22.468Z,22.60
2022-09-14T17:31:50.795Z,22.50
2022-09-14T17:34:19.213Z,22.40
2022-09-14T17:36:47.289Z,22.40
2022-09-14T17:39:15.950Z,22.40
2022-09-14T17:41:44.219Z,22.60
2022-09-14T17:44:14.710Z,22.80
2022-09-14T17:46:53.101Z,23.10
2022-09-14T17:49:21.988Z,23.20
2022-09-14T17:51:50.388Z,23.30
2022-09-14T17:54:18.858Z,23.40
2022-09-14T17:56:47.012Z,23.00
2022-09-14T17:59:19.050Z,22.50
2022-09-14T18:01:48.030Z,22.30
2022-09-14T18:04:16.079Z,22.60
2022-09-14T18:06:46.650Z,22.90
2022-09-14T18:09:20.418Z,23.10
2022-09-14T18:11:49.464Z,23.20
2022-09-14T18:14:17.886Z,23.30
2022-09-14T18:16:46.245Z,23.40
2022-09-14T18:19:15.137Z,23.10
2022-09-14T18:21:44.435Z,22.60
2022-09-14T18:24:13.871Z,22.40
2022-09-14T18:26:42.072Z,22.20
2022-09-14T18:29:14.488Z,22.20
2022-09-14T18:31:42.985Z,22.20
2022-09-14T18:34:11.470Z,22.40
2022-09-14T18:36:39.723Z,22.70
2022-09-14T18:39:08.130Z,22.80
2022-09-14T18:41:36.458Z,23.00
2022-09-14T18:44:04.942Z,23.10
2022-09-14T18:46:33.334Z,23.20
2022-09-14T18:49:02.624Z,23.30
2022-09-14T18:51:32.504Z,23.30
2022-09-14T18:54:05.442Z,22.60
2022-09-14T18:56:35.163Z,22.30
2022-09-14T18:59:05.636Z,22.10
2022-09-14T19:01:35.349Z,22.10
2022-09-14T19:04:06.089Z,22.10
2022-09-14T19:06:35.961Z,22.30
2022-09-14T19:09:05.496Z,22.60
2022-09-14T19:11:34.183Z,22.80
2022-09-14T19:14:06.166Z,22.90
2022-09-14T19:16:34.401Z,23.10
2022-09-14T19:19:02.676Z,23.20
2022-09-14T19:21:32.066Z,23.30
2022-09-14T19:24:02.445Z,23.30
2022-09-14T19:26:34.245Z,22.60
2022-09-14T19:29:02.992Z,22.30
2022-09-14T19:31:31.224Z,22.10
2022-09-14T19:34:00.573Z,22.00
2022-09-14T19:36:30.217Z,21.90
2022-09-14T19:39:00.357Z,22.20
2022-09-14T19:41:29.875Z,22.50
2022-09-14T19:43:58.700Z,22.70
2022-09-14T19:46:27.235Z,22.90
2022-09-14T19:48:55.506Z,23.00
2022-09-14T19:51:26.090Z,23.10
2022-09-14T19:53:56.019Z,23.20
2022-09-14T19:56:26.444Z,23.40
2022-09-14T19:58:57.472Z,23.40
2022-09-14T20:01:27.318Z,23.40
2022-09-14T20:03:56.019Z,22.50
2022-09-14T20:06:28.133Z,22.20
2022-09-14T20:09:14.396Z,22.10
2022-09-14T20:11:44.995Z,21.90
2022-09-14T20:14:16.424Z,22.20
2022-09-14T20:16:50.878Z,22.40
2022-09-14T20:19:21.157Z,22.70
2022-09-14T20:21:50.853Z,22.80
2022-09-14T20:24:29.276Z,22.90
2022-09-14T20:27:00.695Z,23.10
2022-09-14T20:29:31.454Z,23.20
2022-09-14T20:32:00.463Z,23.30
2022-09-14T20:34:29.034Z,23.00
2022-09-14T20:36:57.989Z,22.40
2022-09-14T20:39:26.391Z,22.10
2022-09-14T20:41:54.531Z,22.00
2022-09-14T20:44:22.752Z,22.00
2022-09-14T20:46:52.024Z,22.30
2022-09-14T20:49:22.413Z,22.60
2022-09-14T20:51:51.553Z,22.70
2022-09-14T20:54:19.712Z,22.80
2022-09-14T20:56:48.018Z,23.00
2022-09-14T20:59:18.723Z,23.10
2022-09-14T21:01:48.660Z,23.30
2022-09-14T21:04:20.046Z,23.30
2022-09-14T21:06:52.663Z,22.60
2022-09-14T21:09:22.593Z,22.00
2022-09-14T21:11:53.261Z,21.90
2022-09-14T21:14:22.447Z,22.00
2022-09-14T21:16:54.174Z,22.40
2022-09-14T21:19:25.663Z,22.70
2022-09-14T21:21:54.234Z,22.90
2022-09-14T21:24:23.291Z,23.00
2022-09-14T21:26:51.519Z,23.10
2022-09-14T21:29:22.313Z,23.20
2022-09-14T21:31:51.110Z,23.30
2022-09-14T21:34:19.658Z,23.00
2022-09-14T21:36:50.909Z,22.40
2022-09-14T21:39:23.314Z,22.00
2022-09-14T21:41:58.371Z,22.00
2022-09-14T21:44:31.251Z,22.00
2022-09-14T21:46:59.663Z,22.30
2022-09-14T21:49:28.317Z,22.50
2022-09-14T21:51:56.525Z,22.70
2022-09-14T21:54:24.758Z,22.80
2022-09-14T21:56:53.583Z,23.00
2022-09-14T21:59:23.437Z,23.10
2022-09-14T22:01:51.944Z,23.20
2022-09-14T22:04:24.777Z,23.30
2022-09-14T22:06:53.758Z,23.00
2022-09-14T22:09:24.204Z,22.30
2022-09-14T22:11:52.695Z,22.00
2022-09-14T22:14:27.169Z,21.80
2022-09-14T22:16:56.237Z,22.00
2022-09-14T22:19:28.200Z,22.30
2022-09-14T22:21:57.251Z,22.50
2022-09-14T22:24:33.506Z,22.70
2022-09-14T22:27:05.573Z,22.90
2022-09-14T22:29:33.734Z,23.00
2022-09-14T22:32:02.090Z,23.10
2022-09-14T22:34:30.466Z,23.20
2022-09-14T22:36:58.769Z,23.30
2022-09-14T22:39:26.893Z,23.00
2022-09-14T22:41:55.259Z,22.30
2022-09-14T22:44:23.477Z,21.90
2022-09-14T22:46:51.730Z,22.00
2022-09-14T22:49:20.072Z,22.30
2022-09-14T22:51:48.456Z,22.60
2022-09-14T22:54:16.736Z,22.80
2022-09-14T22:56:44.791Z,22.90
2022-09-14T22:59:13.145Z,23.00
2022-09-14T23:01:42.642Z,23.10
2022-09-14T23:04:13.368Z,23.20
2022-09-14T23:06:43.980Z,23.30
2022-09-14T23:09:14.754Z,22.50
2022-09-14T23:11:43.237Z,22.10
2022-09-14T23:14:12.698Z,21.90
2022-09-14T23:16:41.955Z,22.00
2022-09-14T23:19:16.277Z,22.20
2022-09-14T23:21:45.311Z,22.50
2022-09-14T23:24:14.130Z,22.70
2022-09-14T23:26:42.338Z,22.80
2022-09-14T23:29:15.420Z,22.90
2022-09-14T23:31:43.929Z,23.00
2022-09-14T23:34:11.988Z,23.10
2022-09-14T23:36:40.318Z,23.20
2022-09-14T23:39:08.630Z,23.20
2022-09-14T23:41:36.885Z,22.40
2022-09-14T23:44:05.141Z,22.20
2022-09-14T23:46:33.242Z,21.90
2022-09-14T23:49:01.660Z,22.00
2022-09-14T23:51:29.885Z,22.30
2022-09-14T23:53:58.159Z,22.50
2022-09-14T23:56:26.455Z,22.70
2022-09-14T23:58:54.601Z,22.80
